Time;durP1;ratioP1;P1;durP2;ratioP2;P2;SDS_P1;SDS_P2;PMS_P1;PMS_P2;Temp;Humidity;BMP_temperature;BMP_pressure;BME280_temperature;BME280_humidity;BME280_pressure;Samples;Min_cycle;Max_cycle;Signal;HPM_P1;HPM_P2
2021/09/15 00:01:50;;;;;;;12.95;7.30;;;;;;;19.42;91.50;96063.25;5011997;28;20029;-83
2021/09/15 00:04:15;;;;;;;11.88;7.35;;;;;;;19.41;91.54;96066.94;5028307;28;20029;-84
2021/09/15 00:06:41;;;;;;;9.30;6.63;;;;;;;19.43;91.62;96072.88;5018973;28;20669;-83
2021/09/15 00:09:07;;;;;;;10.25;6.78;;;;;;;19.38;91.62;96067.38;5005427;28;20120;-83
2021/09/15 00:11:33;;;;;;;9.98;7.40;;;;;;;19.17;92.59;96075.75;5006821;28;20172;-83
2021/09/15 00:13:58;;;;;;;10.38;7.07;;;;;;;19.26;92.22;96075.28;5002399;28;20115;-83
2021/09/15 00:16:24;;;;;;;10.13;7.38;;;;;;;19.35;91.63;96062.50;4995291;28;20049;-84
2021/09/15 00:18:50;;;;;;;11.50;8.00;;;;;;;19.39;91.36;96070.88;5006464;28;20561;-83
2021/09/15 00:21:15;;;;;;;10.60;7.70;;;;;;;19.40;91.50;96070.66;4985506;28;20025;-84
2021/09/15 00:23:41;;;;;;;11.70;8.05;;;;;;;19.42;91.45;96062.44;4991331;28;20025;-84
2021/09/15 00:26:09;;;;;;;9.95;7.80;;;;;;;19.49;90.74;96069.34;5000116;28;20026;-83
2021/09/15 00:28:35;;;;;;;10.90;8.20;;;;;;;19.50;89.72;96065.63;4999850;28;20044;-83
2021/09/15 00:31:00;;;;;;;10.80;7.60;;;;;;;19.45;89.74;96068.16;5004111;28;20033;-83
2021/09/15 00:33:26;;;;;;;12.38;7.32;;;;;;;19.45;89.90;96064.66;5001057;28;20091;-83
2021/09/15 00:35:52;;;;;;;11.00;7.30;;;;;;;19.47;89.62;96066.06;5006504;28;20388;-83
2021/09/15 00:38:36;;;;;;;10.52;7.75;;;;;;;19.47;89.60;96065.25;5015324;28;20044;-83
2021/09/15 00:41:04;;;;;;;11.90;7.28;;;;;;;19.48;89.40;96065.06;5019634;28;20034;-83
2021/09/15 00:43:30;;;;;;;11.80;7.13;;;;;;;19.42;89.50;96062.44;5000917;28;20056;-83
2021/09/15 00:45:57;;;;;;;13.57;7.35;;;;;;;19.42;89.49;96062.44;5001737;28;20029;-83
2021/09/15 00:48:24;;;;;;;11.25;7.25;;;;;;;19.42;89.42;96065.91;4993259;28;20086;-84
2021/09/15 00:50:51;;;;;;;12.05;7.28;;;;;;;19.50;88.84;96059.47;5030128;28;20021;-83
2021/09/15 00:53:19;;;;;;;14.40;8.90;;;;;;;19.47;89.21;96055.41;4994427;28;20025;-84
2021/09/15 00:55:46;;;;;;;15.95;9.20;;;;;;;19.52;88.67;96058.22;4991242;28;20096;-84
2021/09/15 00:58:12;;;;;;;12.77;9.15;;;;;;;19.51;88.46;96053.09;5006502;28;20061;-84
2021/09/15 01:00:38;;;;;;;11.88;8.55;;;;;;;19.51;88.49;96048.59;4980616;28;20040;-83
2021/09/15 01:03:06;;;;;;;13.82;8.05;;;;;;;19.52;87.94;96046.75;4992084;28;20028;-83
2021/09/15 01:05:34;;;;;;;12.80;8.63;;;;;;;19.41;88.83;96048.28;4997860;28;20147;-83
2021/09/15 01:08:01;;;;;;;11.45;7.35;;;;;;;19.38;89.05;96045.22;5003325;28;20484;-83
2021/09/15 01:10:29;;;;;;;12.02;8.00;;;;;;;19.41;88.80;96048.28;4993635;28;20039;-83
2021/09/15 01:13:08;;;;;;;15.18;9.45;;;;;;;19.42;88.69;96041.91;4995905;28;20033;-83
2021/09/15 01:15:40;;;;;;;23.92;14.02;;;;;;;19.34;89.40;96039.50;5012105;28;20644;-83
2021/09/15 01:18:24;;;;;;;28.33;15.13;;;;;;;19.35;89.22;96035.84;5002693;28;20125;-83
2021/09/15 01:21:14;;;;;;;18.95;11.80;;;;;;;19.41;88.72;96031.47;5000713;28;20131;-84
2021/09/15 01:24:03;;;;;;;12.77;9.15;;;;;;;19.38;89.43;96042.56;5013228;28;20045;-83
2021/09/15 01:26:45;;;;;;;15.30;8.93;;;;;;;19.31;89.65;96039.94;5022324;28;20111;-84
2021/09/15 01:29:35;;;;;;;15.10;8.77;;;;;;;19.35;89.30;96037.66;4985980;28;20040;-83
2021/09/15 01:32:12;;;;;;;11.40;7.72;;;;;;;19.35;89.33;96040.31;5002777;28;20033;-83
2021/09/15 01:34:51;;;;;;;10.40;7.22;;;;;;;19.34;89.14;96034.19;5003085;28;20030;-83
2021/09/15 01:37:21;;;;;;;9.88;6.38;;;;;;;19.22;90.16;96035.94;5000554;28;20079;-84
2021/09/15 01:40:06;;;;;;;13.63;7.15;;;;;;;19.20;90.48;96040.69;5003750;28;20034;-83
2021/09/15 01:42:35;;;;;;;10.15;6.50;;;;;;;19.26;91.01;96031.81;5007921;28;20376;-84
2021/09/15 01:45:08;;;;;;;10.20;6.28;;;;;;;19.10;91.29;96030.50;5011119;28;20117;-83
2021/09/15 01:47:35;;;;;;;12.50;7.18;;;;;;;19.06;91.50;96027.44;5009338;28;20052;-83
2021/09/15 01:50:00;;;;;;;12.00;7.10;;;;;;;19.07;91.58;96026.41;4999457;28;20121;-83
2021/09/15 01:52:27;;;;;;;8.73;6.68;;;;;;;19.00;92.44;96032.84;5004674;28;20064;-83
2021/09/15 01:54:54;;;;;;;12.05;7.28;;;;;;;19.02;93.98;96030.78;5033037;28;20025;-83
2021/09/15 01:57:20;;;;;;;11.13;7.03;;;;;;;18.95;94.67;96024.69;5009781;28;20384;-83
2021/09/15 02:00:05;;;;;;;16.02;8.70;;;;;;;18.89;94.90;96025.56;5005666;28;20134;-82
2021/09/15 02:03:01;;;;;;;12.35;7.97;;;;;;;18.93;96.15;96016.91;5037164;28;20033;-83
2021/09/15 02:05:41;;;;;;;12.55;8.50;;;;;;;18.88;96.82;96016.75;5037674;28;20021;-83
2021/09/15 02:08:29;;;;;;;11.30;8.00;;;;;;;18.85;96.10;96019.84;4999387;28;20042;-83
2021/09/15 02:11:10;;;;;;;12.63;8.65;;;;;;;18.82;96.27;96013.09;5014240;28;20041;-83
2021/09/15 02:13:36;;;;;;;10.63;7.95;;;;;;;18.87;96.00;96017.75;5010457;28;20121;-83
2021/09/15 02:19:50;;;;;;;16.13;8.90;;;;;;;18.82;96.86;96015.75;5029738;28;20028;-84
2021/09/15 02:22:24;;;;;;;12.98;9.40;;;;;;;18.79;97.14;96013.53;4999972;28;20038;-83
2021/09/15 02:25:16;;;;;;;13.43;8.60;;;;;;;18.70;97.62;96017.44;5011056;28;20674;-84
2021/09/15 02:28:08;;;;;;;12.55;9.15;;;;;;;18.81;96.34;96015.94;5000445;28;20071;-83
2021/09/15 02:30:52;;;;;;;10.60;8.35;;;;;;;18.79;96.47;96013.53;5025911;28;20040;-83
2021/09/15 02:33:36;;;;;;;11.38;9.25;;;;;;;18.77;97.08;96020.91;5006805;28;20117;-83
2021/09/15 02:36:03;;;;;;;13.48;8.55;;;;;;;18.78;96.79;96013.75;5005677;28;20038;-83
2021/09/15 02:38:46;;;;;;;;;;;;;;;18.76;97.31;96013.13;5003132;28;20055;-83
2021/09/15 02:41:36;;;;;;;14.63;9.23;;;;;;;18.75;97.32;96008.84;5020795;28;19913;-83
2021/09/15 02:44:28;;;;;;;11.13;8.57;;;;;;;18.69;98.49;96001.69;5007639;28;20034;-83
2021/09/15 02:47:14;;;;;;;12.48;9.48;;;;;;;18.61;99.51;96003.59;4998205;28;20041;-83
2021/09/15 02:49:58;;;;;;;13.02;8.85;;;;;;;18.70;98.21;96003.31;5016288;28;20052;-84
2021/09/15 02:52:39;;;;;;;13.07;9.18;;;;;;;18.56;99.52;95995.41;5005085;28;20038;-83
2021/09/15 02:55:25;;;;;;;14.18;8.73;;;;;;;18.48;100.00;95997.53;5033543;28;20072;-84
2021/09/15 02:57:54;;;;;;;10.68;8.73;;;;;;;18.53;100.00;96009.16;5008890;28;20553;-83
2021/09/15 03:00:34;;;;;;;12.90;9.38;;;;;;;18.52;100.00;96004.06;5009718;28;20116;-84
2021/09/15 03:03:06;;;;;;;12.43;9.35;;;;;;;18.55;99.10;95998.28;5006942;28;20036;-83
2021/09/15 03:06:01;;;;;;;12.32;9.27;;;;;;;18.50;99.66;95993.59;5012344;28;20044;-83
2021/09/15 03:08:44;;;;;;;14.38;8.85;;;;;;;18.55;98.88;95988.47;5005535;28;20034;-83
2021/09/15 03:11:09;;;;;;;11.43;8.70;;;;;;;18.56;98.08;95992.75;4999171;28;20120;-83
2021/09/15 03:13:35;;;;;;;12.65;8.20;;;;;;;18.59;98.00;95976.34;5008300;28;20033;-84
2021/09/15 03:16:01;;;;;;;12.30;9.15;;;;;;;18.66;97.87;95991.47;4994322;28;20040;-83
2021/09/15 03:18:27;;;;;;;13.70;9.27;;;;;;;18.57;98.17;95977.56;5004483;28;20018;-83
2021/09/15 03:20:53;;;;;;;13.57;8.98;;;;;;;18.46;98.96;95983.59;5003222;28;20060;-83
2021/09/15 03:23:19;;;;;;;14.68;9.15;;;;;;;18.47;98.58;95977.22;4993873;28;20079;-83
2021/09/15 03:25:45;;;;;;;18.25;10.25;;;;;;;18.34;99.32;95976.31;4993557;28;20406;-83
2021/09/15 03:28:11;;;;;;;12.35;8.65;;;;;;;18.47;98.74;95972.72;4987291;28;20076;-83
2021/09/15 03:30:38;;;;;;;14.48;9.55;;;;;;;18.42;98.94;95977.88;5007682;28;20049;-84
2021/09/15 03:33:04;;;;;;;10.27;8.75;;;;;;;18.31;99.68;95983.91;5003149;28;20033;-84
2021/09/15 03:35:31;;;;;;;11.57;8.68;;;;;;;18.25;100.00;95982.09;5016341;28;20041;-83
2021/09/15 03:37:58;;;;;;;11.70;8.88;;;;;;;18.35;99.39;95974.47;5019589;28;20108;-83
2021/09/15 03:40:23;;;;;;;12.25;8.85;;;;;;;18.33;99.22;95966.66;5003980;28;20120;-83
2021/09/15 03:42:50;;;;;;;11.38;8.70;;;;;;;18.34;99.16;95973.66;5011161;28;20121;-83
2021/09/15 03:45:16;;;;;;;11.90;8.32;;;;;;;18.29;99.98;95975.31;5000563;28;20033;-83
2021/09/15 03:47:43;;;;;;;15.77;8.98;;;;;;;18.26;100.00;95970.41;5009221;28;20551;-83
2021/09/15 03:50:09;;;;;;;11.73;8.77;;;;;;;18.27;100.00;95966.72;5007537;28;20156;-83
2021/09/15 03:52:47;;;;;;;13.35;9.27;;;;;;;18.29;99.79;95970.78;5006820;28;20751;-84
2021/09/15 03:55:13;;;;;;;11.80;8.75;;;;;;;18.31;99.91;95968.75;5005483;28;20100;-83
2021/09/15 03:57:39;;;;;;;11.75;9.07;;;;;;;18.33;99.48;95968.53;5007632;28;20021;-83
2021/09/15 04:00:05;;;;;;;14.60;9.88;;;;;;;18.33;99.45;95957.88;4990455;28;20173;-83
2021/09/15 04:02:38;;;;;;;16.65;9.68;;;;;;;18.36;98.93;95958.25;5005690;28;20073;-83
2021/09/15 04:05:07;;;;;;;13.43;9.52;;;;;;;18.36;98.76;95968.09;5029101;28;20029;-83
2021/09/15 04:07:34;;;;;;;11.82;9.18;;;;;;;18.35;98.94;95969.94;5010395;28;20025;-82
2021/09/15 04:10:00;;;;;;;13.70;9.30;;;;;;;18.36;98.85;95963.59;5006024;28;20088;-83
2021/09/15 04:12:26;;;;;;;12.15;9.32;;;;;;;18.33;98.93;95966.66;5008046;28;20843;-84
2021/09/15 04:14:52;;;;;;;12.75;8.68;;;;;;;18.37;98.87;95964.38;4988885;28;20033;-83
2021/09/15 04:17:17;;;;;;;13.48;9.35;;;;;;;18.41;98.81;95968.28;4999065;28;20479;-84
2021/09/15 04:19:43;;;;;;;11.63;9.30;;;;;;;18.45;98.51;95966.81;5001813;28;20514;-83
2021/09/15 04:22:16;;;;;;;15.55;9.70;;;;;;;18.35;99.35;95967.28;4988146;28;20029;-83
2021/09/15 04:33:00;;;;;;;16.30;10.13;;;;;;;18.45;100.00;95980.13;5002814;28;20029;-84
2021/09/15 04:35:28;;;;;;;15.70;11.30;;;;;;;18.47;99.66;95983.38;4990330;28;20028;-83
2021/09/15 04:37:54;;;;;;;18.25;9.95;;;;;;;18.43;99.61;95974.19;4998360;28;20033;-83
2021/09/15 04:40:22;;;;;;;14.68;10.27;;;;;;;18.47;99.67;95980.72;4998352;28;20029;-83
2021/09/15 04:46:35;;;;;;;15.48;9.63;;;;;;;18.43;100.00;95990.16;5017229;28;20137;-83
2021/09/15 04:49:01;;;;;;;16.60;9.77;;;;;;;18.43;100.00;95984.84;4992628;28;20064;-84
2021/09/15 04:51:29;;;;;;;13.52;9.85;;;;;;;18.39;100.00;95999.63;5011126;28;20818;-83
2021/09/15 04:53:54;;;;;;;12.70;9.77;;;;;;;18.37;100.00;96004.31;5001699;28;20084;-84
2021/09/15 04:56:20;;;;;;;13.05;9.48;;;;;;;18.34;100.00;96012.72;5004363;28;20385;-83
2021/09/15 04:58:48;;;;;;;15.98;9.07;;;;;;;18.40;100.00;96016.41;5001662;28;20029;-83
2021/09/15 05:01:16;;;;;;;15.73;9.50;;;;;;;18.33;100.00;96019.09;5010129;28;20036;-83
2021/09/15 05:03:42;;;;;;;13.45;8.75;;;;;;;18.39;100.00;96015.59;5007151;28;20036;-83
2021/09/15 05:06:10;;;;;;;13.20;8.57;;;;;;;18.40;100.00;96001.25;5004196;28;20175;-83
2021/09/15 05:08:36;;;;;;;13.30;8.73;;;;;;;18.41;100.00;96002.91;4997176;28;20033;-82
2021/09/15 05:11:03;;;;;;;9.93;7.97;;;;;;;18.39;100.00;95999.63;4998880;28;20022;-82
2021/09/15 05:13:29;;;;;;;11.98;8.48;;;;;;;18.35;100.00;95998.41;5010752;28;20120;-82
2021/09/15 05:15:54;;;;;;;11.00;7.75;;;;;;;18.10;100.00;95990.34;4999428;28;20555;-82
2021/09/15 05:18:20;;;;;;;9.35;7.78;;;;;;;18.03;100.00;95989.56;5007375;28;20048;-80
2021/09/15 05:20:46;;;;;;;15.70;9.07;;;;;;;17.70;100.00;95995.78;4992008;28;20381;-80
2021/09/15 05:23:13;;;;;;;12.57;9.90;;;;;;;17.79;100.00;95999.06;5006525;28;20037;-82
2021/09/15 05:25:39;;;;;;;12.70;10.80;;;;;;;17.82;100.00;95999.47;4984301;28;20026;-80
2021/09/15 05:28:08;;;;;;;11.65;9.55;;;;;;;17.70;100.00;96000.28;5010899;28;20060;-80
2021/09/15 05:30:37;;;;;;;14.68;10.65;;;;;;;17.81;100.00;95999.69;4999814;28;20479;-80
2021/09/15 05:33:04;;;;;;;12.90;8.98;;;;;;;17.88;100.00;95989.84;5029700;28;20029;-80
2021/09/15 05:35:30;;;;;;;13.75;9.60;;;;;;;17.76;100.00;95987.00;4989640;28;20136;-80
2021/09/15 05:38:01;;;;;;;12.43;9.35;;;;;;;17.75;100.00;95990.66;5002940;28;20123;-80
2021/09/15 05:40:27;;;;;;;13.43;10.00;;;;;;;17.86;100.00;95994.53;4998785;28;20029;-80
2021/09/15 05:42:53;;;;;;;14.80;9.52;;;;;;;17.98;100.00;95992.06;4984749;28;20578;-80
2021/09/15 05:45:20;;;;;;;12.25;9.48;;;;;;;17.99;100.00;95999.00;4988129;28;20032;-80
2021/09/15 05:47:46;;;;;;;14.43;10.05;;;;;;;18.02;100.00;96003.91;5018020;28;20044;-80
2021/09/15 05:50:12;;;;;;;15.93;11.80;;;;;;;18.04;100.00;96008.00;4997678;28;20030;-81
2021/09/15 05:52:45;;;;;;;17.27;10.57;;;;;;;18.14;100.00;96019.00;5004216;28;20025;-80
2021/09/15 05:55:11;;;;;;;14.02;10.45;;;;;;;18.18;100.00;96019.38;4992239;28;20025;-80
2021/09/15 05:57:38;;;;;;;12.93;10.55;;;;;;;18.18;100.00;96023.91;5010116;28;20266;-79
2021/09/15 06:00:06;;;;;;;17.20;10.07;;;;;;;18.18;100.00;96027.38;4998514;28;20061;-80
2021/09/15 06:02:40;;;;;;;15.15;10.02;;;;;;;18.25;100.00;96035.34;5000908;28;20031;-80
2021/09/15 06:05:29;;;;;;;13.02;9.95;;;;;;;18.17;100.00;96046.19;5007170;28;20037;-80
2021/09/15 06:07:55;;;;;;;14.57;10.50;;;;;;;18.19;100.00;96036.97;4978438;28;20040;-80
2021/09/15 06:10:21;;;;;;;13.95;9.55;;;;;;;18.26;100.00;96039.63;5005038;28;20034;-80
2021/09/15 06:12:47;;;;;;;17.50;10.25;;;;;;;18.29;100.00;96036.53;5007681;28;20033;-80
2021/09/15 06:15:13;;;;;;;12.63;8.82;;;;;;;18.30;100.00;96032.84;4992621;28;20029;-80
2021/09/15 06:17:44;;;;;;;14.10;9.85;;;;;;;18.38;100.00;96021.94;5006081;28;20038;-81
2021/09/15 06:20:11;;;;;;;13.38;8.95;;;;;;;18.48;100.00;96018.84;4989090;28;20029;-80
2021/09/15 06:22:56;;;;;;;11.43;8.40;;;;;;;18.46;100.00;96024.34;4997495;28;20416;-80
2021/09/15 06:25:42;;;;;;;10.85;8.30;;;;;;;18.48;100.00;96013.50;4994062;28;20190;-81
2021/09/15 06:28:09;;;;;;;12.30;8.10;;;;;;;18.41;100.00;96024.19;4977768;28;20459;-80
2021/09/15 06:30:35;;;;;;;15.18;11.30;;;;;;;18.35;100.00;96025.84;4995719;28;20060;-80
2021/09/15 06:33:01;;;;;;;10.13;8.13;;;;;;;18.42;100.00;96017.81;5022461;28;20064;-80
2021/09/15 06:35:27;;;;;;;10.95;8.55;;;;;;;18.51;100.00;96013.88;4991740;28;20564;-80
2021/09/15 06:37:53;;;;;;;14.02;9.35;;;;;;;18.52;100.00;96014.69;5035693;28;20562;-80
2021/09/15 06:40:18;;;;;;;12.40;9.00;;;;;;;18.61;100.00;96013.38;5005164;28;20143;-80
2021/09/15 06:42:44;;;;;;;11.93;8.88;;;;;;;18.72;100.00;96026.06;4999721;28;20060;-80
2021/09/15 06:45:10;;;;;;;12.52;8.57;;;;;;;18.72;100.00;96022.59;4995688;28;20029;-80
2021/09/15 06:47:45;;;;;;;10.65;8.23;;;;;;;18.79;100.00;96026.03;5021659;28;20830;-80
2021/09/15 06:50:12;;;;;;;11.90;8.27;;;;;;;18.78;100.00;96021.75;5022241;28;20057;-80
2021/09/15 06:52:39;;;;;;;10.05;8.52;;;;;;;18.77;100.00;96028.88;4990436;28;20021;-80
2021/09/15 06:55:06;;;;;;;12.10;9.48;;;;;;;18.78;100.00;96025.22;4976455;28;20042;-80
2021/09/15 06:57:32;;;;;;;11.73;8.48;;;;;;;18.79;100.00;96031.34;4982727;28;20033;-81
2021/09/15 06:59:58;;;;;;;12.82;8.98;;;;;;;18.73;100.00;96032.22;5014740;28;20435;-80
2021/09/15 07:02:25;;;;;;;13.52;8.57;;;;;;;18.63;100.00;96029.97;4981309;28;20029;-81
2021/09/15 07:04:52;;;;;;;14.13;9.48;;;;;;;18.61;100.00;96035.53;5021286;28;20439;-81
2021/09/15 07:07:18;;;;;;;14.63;9.93;;;;;;;18.61;100.00;96046.19;4992614;28;20025;-81
2021/09/15 07:09:44;;;;;;;13.23;9.38;;;;;;;18.58;100.00;96043.97;4990767;28;20119;-80
2021/09/15 07:12:09;;;;;;;13.32;9.77;;;;;;;18.58;100.00;96046.63;5004535;28;20563;-80
2021/09/15 07:14:35;;;;;;;12.50;9.57;;;;;;;18.61;100.00;96046.19;5026477;28;20041;-81
2021/09/15 07:17:01;;;;;;;12.23;9.50;;;;;;;18.71;100.00;96050.22;5024008;28;20541;-80
2021/09/15 07:19:27;;;;;;;13.00;8.98;;;;;;;18.59;100.00;96048.25;5008763;28;20035;-81
2021/09/15 07:21:52;;;;;;;11.48;8.43;;;;;;;18.59;100.00;96056.22;4992206;28;20550;-81
2021/09/15 07:24:19;;;;;;;11.55;9.23;;;;;;;18.59;100.00;96047.44;5002729;28;20121;-81
2021/09/15 07:26:44;;;;;;;14.05;8.43;;;;;;;18.54;100.00;96058.72;5002924;28;20041;-81
2021/09/15 07:29:10;;;;;;;11.35;8.27;;;;;;;18.54;100.00;96042.75;4981433;28;20065;-81
2021/09/15 07:31:38;;;;;;;11.77;7.82;;;;;;;18.49;100.00;96045.22;5000608;28;20376;-80
2021/09/15 07:34:05;;;;;;;14.52;7.75;;;;;;;18.43;100.00;96046.06;5019613;28;20037;-81
2021/09/15 07:36:31;;;;;;;9.55;7.68;;;;;;;18.42;100.00;96028.47;5004826;28;20442;-80
2021/09/15 07:38:57;;;;;;;10.65;8.05;;;;;;;18.36;100.00;96029.31;4999518;28;20029;-80
2021/09/15 07:41:23;;;;;;;10.38;8.30;;;;;;;18.37;100.00;96042.41;4991703;28;20490;-81
2021/09/15 07:43:49;;;;;;;9.70;8.32;;;;;;;18.30;100.00;96046.13;5012983;28;20096;-81
2021/09/15 07:46:14;;;;;;;16.42;10.98;;;;;;;18.40;100.00;96053.69;5007297;28;20057;-80
2021/09/15 07:48:40;;;;;;;11.30;8.18;;;;;;;18.23;100.00;96066.66;5000218;28;20033;-81
2021/09/15 07:51:06;;;;;;;9.75;7.97;;;;;;;18.29;100.00;96063.16;4987874;28;20034;-80
2021/09/15 07:53:32;;;;;;;13.15;7.97;;;;;;;18.21;100.00;96050.06;4994874;28;20404;-81
2021/09/15 07:55:57;;;;;;;12.18;8.13;;;;;;;18.29;100.00;96042.66;4980662;28;20109;-80
2021/09/15 07:58:35;;;;;;;15.18;8.55;;;;;;;18.36;100.00;96032.00;4984285;28;20120;-81
2021/09/15 08:01:00;;;;;;;8.85;7.38;;;;;;;18.52;100.00;96026.16;5025994;28;20033;-80
2021/09/15 08:03:26;;;;;;;10.60;7.45;;;;;;;18.59;100.00;96032.25;5004734;28;20023;-80
2021/09/15 08:05:54;;;;;;;12.68;8.50;;;;;;;18.56;100.00;96043.34;4999329;28;20033;-80
2021/09/15 08:08:20;;;;;;;17.73;15.93;;;;;;;18.48;100.00;96058.78;4990979;28;20022;-80
2021/09/15 08:10:46;;;;;;;15.55;12.10;;;;;;;18.48;100.00;96061.44;4983778;28;20192;-81
2021/09/15 08:13:12;;;;;;;11.30;9.13;;;;;;;18.53;100.00;96048.28;5016428;28;20097;-81
2021/09/15 08:15:38;;;;;;;11.77;8.02;;;;;;;18.61;100.00;96058.66;4979921;28;20034;-81
2021/09/15 08:18:04;;;;;;;10.85;7.82;;;;;;;18.54;100.00;96060.56;4977586;28;20777;-80
2021/09/15 08:20:30;;;;;;;10.27;7.75;;;;;;;18.66;100.00;96069.50;4997714;28;20036;-80
2021/09/15 08:22:56;;;;;;;10.73;8.70;;;;;;;18.56;100.00;96080.63;4991527;28;20408;-80
2021/09/15 08:25:22;;;;;;;9.68;7.65;;;;;;;18.58;100.00;96073.25;4999005;28;20041;-80
2021/09/15 08:27:49;;;;;;;10.80;8.65;;;;;;;18.51;100.00;96077.81;4994428;28;20057;-81
2021/09/15 08:30:15;;;;;;;11.13;8.63;;;;;;;18.69;100.00;96061.09;4977982;28;20492;-81
2021/09/15 08:32:41;;;;;;;10.32;7.50;;;;;;;18.79;100.00;96039.34;4993551;28;20396;-80
2021/09/15 08:35:07;;;;;;;11.27;7.82;;;;;;;18.89;100.00;96031.69;5003999;28;20099;-81
2021/09/15 08:37:34;;;;;;;13.38;8.95;;;;;;;18.97;100.00;96034.06;4999769;28;20501;-81
2021/09/15 08:40:00;;;;;;;10.57;7.68;;;;;;;18.92;100.00;96044.59;4996588;28;20049;-80
2021/09/15 08:42:26;;;;;;;10.30;8.27;;;;;;;18.89;100.00;96066.34;5001936;28;20025;-80
2021/09/15 08:44:52;;;;;;;12.05;8.25;;;;;;;18.83;100.00;96091.97;5004529;28;20033;-81
2021/09/15 08:47:21;;;;;;;11.68;9.48;;;;;;;18.67;100.00;96123.59;5018976;28;20113;-80
2021/09/15 08:49:47;;;;;;;11.32;8.40;;;;;;;18.70;100.00;96123.19;4995706;28;20380;-80
2021/09/15 08:52:13;;;;;;;11.18;9.32;;;;;;;18.56;100.00;96117.09;4999117;28;20032;-80
2021/09/15 08:54:38;;;;;;;14.40;10.18;;;;;;;18.79;100.00;96108.63;5007512;28;20029;-80
2021/09/15 08:57:04;;;;;;;16.23;9.82;;;;;;;18.91;100.00;96098.88;4980192;28;20120;-80
2021/09/15 08:59:30;;;;;;;13.10;10.15;;;;;;;19.08;100.00;96083.22;4997424;28;20029;-80
2021/09/15 09:02:07;;;;;;;13.82;9.73;;;;;;;19.30;100.00;96071.13;4999433;28;20431;-80
2021/09/15 09:04:52;;;;;;;13.55;10.75;;;;;;;19.41;100.00;96071.47;5017867;28;20033;-80
2021/09/15 09:07:18;;;;;;;12.77;10.32;;;;;;;19.50;100.00;96067.47;5012484;28;20587;-80
2021/09/15 09:09:49;;;;;;;12.15;8.57;;;;;;;19.70;100.00;96056.66;4996768;28;20040;-80
2021/09/15 09:12:16;;;;;;;15.40;8.48;;;;;;;19.77;100.00;96060.06;4989575;28;20063;-80
2021/09/15 09:14:43;;;;;;;12.48;8.00;;;;;;;19.47;100.00;96059.91;4997657;28;20084;-79
2021/09/15 09:17:27;;;;;;;10.82;8.30;;;;;;;19.72;100.00;96057.25;4995075;28;20034;-80
2021/09/15 09:20:16;;;;;;;9.88;8.05;;;;;;;19.56;100.00;96050.59;5002537;28;20112;-80
2021/09/15 09:23:12;;;;;;;13.00;7.95;;;;;;;19.50;100.00;96068.28;5016798;28;20116;-80
2021/09/15 09:26:04;;;;;;;11.27;8.38;;;;;;;19.57;100.00;96089.56;5008979;28;20500;-80
2021/09/15 09:28:36;;;;;;;11.05;9.13;;;;;;;19.41;100.00;96092.78;4990140;28;20049;-80
2021/09/15 09:31:07;;;;;;;11.13;8.13;;;;;;;19.41;100.00;96098.13;4994616;28;20042;-80
2021/09/15 09:33:42;;;;;;;10.02;7.88;;;;;;;19.41;100.00;96098.94;5006949;28;20034;-79
2021/09/15 09:36:09;;;;;;;10.25;7.18;;;;;;;19.31;100.00;96110.13;5008285;28;20042;-80
2021/09/15 09:38:38;;;;;;;10.80;7.18;;;;;;;19.02;100.00;96106.22;4976468;28;20099;-79
2021/09/15 09:41:20;;;;;;;11.10;8.93;;;;;;;19.12;100.00;96099.59;5016270;28;20038;-80
2021/09/15 09:43:52;;;;;;;11.20;7.63;;;;;;;19.02;100.00;96103.56;4985337;28;20041;-79
2021/09/15 09:46:33;;;;;;;10.30;7.90;;;;;;;19.04;100.00;96114.78;4984383;28;20072;-79
2021/09/15 09:49:01;;;;;;;14.25;8.10;;;;;;;19.02;100.00;96118.72;4996452;28;20049;-79
2021/09/15 09:51:34;;;;;;;13.95;8.25;;;;;;;19.00;100.00;96110.13;5022641;28;20027;-79
2021/09/15 09:54:13;;;;;;;15.90;8.48;;;;;;;18.98;100.00;96114.84;4999820;28;20451;-79
2021/09/15 09:56:44;;;;;;;12.07;7.40;;;;;;;18.87;100.00;96112.88;4999144;28;20029;-79
2021/09/15 09:59:12;;;;;;;9.45;5.90;;;;;;;19.00;100.00;96118.13;5001892;28;20061;-79
2021/09/15 10:01:45;;;;;;;9.32;6.72;;;;;;;18.92;100.00;96113.88;4994595;28;20025;-79
2021/09/15 10:04:12;;;;;;;10.75;6.22;;;;;;;18.99;100.00;96127.16;5021968;28;20030;-79
2021/09/15 10:06:40;;;;;;;10.63;6.78;;;;;;;19.06;100.00;96127.91;5010887;28;20108;-79
2021/09/15 10:09:07;;;;;;;9.70;6.60;;;;;;;19.06;100.00;96128.72;4993300;28;20041;-79
2021/09/15 10:11:35;;;;;;;8.80;6.13;;;;;;;18.92;100.00;96135.19;5006523;28;20027;-79
2021/09/15 10:14:02;;;;;;;10.85;6.50;;;;;;;19.01;100.00;96131.25;5005345;28;20045;-80
2021/09/15 10:16:28;;;;;;;9.98;5.28;;;;;;;19.10;100.00;96126.44;4981419;28;20116;-80
2021/09/15 10:19:00;;;;;;;9.23;6.28;;;;;;;19.08;100.00;96121.34;5012023;28;20369;-79
2021/09/15 10:21:34;;;;;;;11.00;6.00;;;;;;;19.02;100.00;96116.06;5008690;28;20033;-80
2021/09/15 10:24:01;;;;;;;9.90;6.20;;;;;;;18.85;100.00;96115.75;5002210;28;20551;-79
2021/09/15 10:26:40;;;;;;;8.40;5.63;;;;;;;18.96;100.00;96123.06;5001194;28;20037;-80
2021/09/15 10:29:28;;;;;;;9.30;5.25;;;;;;;18.96;100.00;96125.72;4997488;28;20119;-79
2021/09/15 10:32:00;;;;;;;11.23;6.72;;;;;;;18.81;100.00;96128.69;5005036;28;20042;-79
2021/09/15 10:34:38;;;;;;;9.43;5.80;;;;;;;18.94;100.00;96119.78;4997939;28;20026;-79
2021/09/15 10:37:13;;;;;;;9.68;5.72;;;;;;;18.89;100.00;96124.13;4983235;28;20049;-79
2021/09/15 10:39:57;;;;;;;10.77;6.43;;;;;;;18.89;100.00;96127.63;4997489;28;20571;-80
2021/09/15 10:42:35;;;;;;;10.73;7.20;;;;;;;18.76;100.00;96128.50;5008563;28;20365;-80
2021/09/15 10:45:13;;;;;;;11.38;6.32;;;;;;;19.00;100.00;96118.94;5019252;28;20042;-79
2021/09/15 10:47:47;;;;;;;14.82;8.77;;;;;;;18.89;100.00;96126.81;4975390;28;20062;-79
2021/09/15 10:50:29;;;;;;;10.13;6.68;;;;;;;18.92;100.00;96126.38;4981102;28;20037;-79
2021/09/15 10:53:13;;;;;;;11.13;7.60;;;;;;;18.84;100.00;96122.91;4981717;28;20045;-79
2021/09/15 10:55:43;;;;;;;11.50;6.95;;;;;;;18.70;100.00;96115.19;5024392;28;20041;-79
2021/09/15 10:58:27;;;;;;;10.23;6.40;;;;;;;18.68;100.00;96117.22;4993649;28;20124;-79
2021/09/15 11:01:04;;;;;;;12.13;6.93;;;;;;;18.62;100.00;96121.59;5012687;28;20038;-79
2021/09/15 11:03:53;;;;;;;9.40;5.90;;;;;;;18.46;100.00;96109.56;4985976;28;20041;-80
2021/09/15 11:06:23;;;;;;;8.98;6.00;;;;;;;18.51;100.00;96109.75;4986186;28;20483;-80
2021/09/15 11:08:54;;;;;;;9.98;6.30;;;;;;;18.44;100.00;96114.28;4998488;28;20049;-79
2021/09/15 11:11:19;;;;;;;8.30;6.30;;;;;;;18.37;100.00;96111.63;4998825;28;20033;-81
2021/09/15 11:13:47;;;;;;;12.90;6.53;;;;;;;18.50;100.00;96101.97;4981245;28;20369;-79
2021/09/15 11:16:29;;;;;;;8.25;5.97;;;;;;;18.47;100.00;96107.72;5001153;28;20072;-79
2021/09/15 11:19:09;;;;;;;9.73;6.90;;;;;;;18.73;100.00;96093.47;5005869;28;20506;-80
2021/09/15 11:21:59;;;;;;;9.60;7.22;;;;;;;19.05;100.00;96100.47;5000245;28;20037;-79
2021/09/15 11:24:30;;;;;;;9.40;6.13;;;;;;;19.29;100.00;96100.69;4997281;28;20048;-80
2021/09/15 11:27:05;;;;;;;9.63;5.88;;;;;;;19.36;100.00;96101.47;4999515;28;20616;-80
2021/09/15 11:29:50;;;;;;;11.20;5.90;;;;;;;19.32;100.00;96102.94;5019842;28;20113;-79
2021/09/15 11:32:17;;;;;;;9.95;5.53;;;;;;;19.38;100.00;96110.03;5002463;28;20087;-80
2021/09/15 11:34:48;;;;;;;10.48;6.07;;;;;;;19.73;100.00;96107.72;5000116;28;20026;-80
2021/09/15 11:37:28;;;;;;;10.15;5.93;;;;;;;19.70;100.00;96107.34;4983834;28;20033;-80
2021/09/15 11:40:03;;;;;;;8.13;5.05;;;;;;;19.95;100.00;96093.94;5001475;28;20037;-80
2021/09/15 11:42:37;;;;;;;7.38;4.97;;;;;;;19.98;100.00;96088.16;4996361;28;20494;-80
2021/09/15 11:45:23;;;;;;;7.32;4.70;;;;;;;20.07;100.00;96083.38;5000633;28;20041;-80
2021/09/15 11:47:53;;;;;;;8.82;5.47;;;;;;;20.10;100.00;96077.59;4982228;28;20074;-80
2021/09/15 11:50:26;;;;;;;7.75;4.90;;;;;;;20.06;99.62;96065.72;5008524;28;20123;-80
2021/09/15 11:53:05;;;;;;;;;;;;;;;19.92;98.19;96078.38;5028107;28;20140;-80
2021/09/15 11:55:36;;;;;;;7.78;3.88;;;;;;;19.89;97.26;96068.97;5000491;28;20055;-80